createdAt,value
2019-03-20T00:00:10.654Z,1.80
2019-03-20T00:01:07.823Z,1.80
2019-03-20T00:02:05.087Z,1.80
2019-03-20T00:03:05.195Z,1.80
2019-03-20T00:04:07.904Z,1.70
2019-03-20T00:05:05.014Z,1.70
2019-03-20T00:06:05.117Z,1.70
2019-03-20T00:07:05.195Z,1.70
2019-03-20T00:08:07.867Z,1.70
2019-03-20T00:09:04.771Z,1.70
2019-03-20T00:10:04.791Z,1.70
2019-03-20T00:11:10.072Z,1.60
2019-03-20T00:12:05.042Z,1.60
2019-03-20T00:13:07.767Z,1.60
2019-03-20T00:14:04.693Z,1.60
2019-03-20T00:15:04.927Z,1.60
2019-03-20T00:16:07.723Z,1.50
2019-03-20T00:17:04.715Z,1.50
2019-03-20T00:18:05.033Z,1.50
2019-03-20T00:19:05.198Z,1.50
2019-03-20T00:20:05.172Z,1.50
2019-03-20T00:21:07.862Z,1.40
2019-03-20T00:22:04.835Z,1.40
2019-03-20T00:23:09.970Z,1.30
2019-03-20T00:24:04.855Z,1.30
2019-03-20T00:25:04.887Z,1.30
2019-03-20T00:26:04.927Z,1.30
2019-03-20T00:27:04.997Z,1.30
2019-03-20T00:28:07.609Z,1.30
2019-03-20T00:29:08.064Z,1.20
2019-03-20T00:30:05.040Z,1.20
2019-03-20T00:31:05.155Z,1.20
2019-03-20T00:32:07.776Z,1.10
2019-03-20T00:33:04.718Z,1.10
2019-03-20T00:34:07.333Z,1.10
2019-03-20T00:35:05.306Z,1.10
2019-03-20T00:36:07.900Z,1.10
2019-03-20T00:37:12.348Z,1.10
2019-03-20T00:38:05.263Z,1.00
2019-03-20T00:39:07.881Z,1.00
2019-03-20T00:40:04.867Z,1.00
2019-03-20T00:41:07.573Z,1.00
2019-03-20T00:42:08.109Z,1.00
2019-03-20T00:43:05.049Z,1.00
2019-03-20T00:44:05.088Z,1.00
2019-03-20T00:45:05.147Z,1.00
2019-03-20T00:46:07.705Z,1.00
2019-03-20T00:47:05.596Z,0.90
2019-03-20T00:48:07.224Z,0.90
2019-03-20T00:49:05.086Z,0.90
2019-03-20T00:50:05.263Z,1.00
2019-03-20T00:51:05.396Z,0.90
2019-03-20T00:52:10.086Z,0.90
2019-03-20T00:53:07.606Z,0.90
2019-03-20T00:54:05.526Z,0.80
2019-03-20T00:55:05.574Z,0.90
2019-03-20T00:56:04.649Z,0.90
2019-03-20T00:57:04.711Z,0.90
2019-03-20T00:58:04.782Z,0.90
2019-03-20T00:59:04.997Z,0.90
2019-03-20T01:00:07.837Z,0.90
2019-03-20T01:01:04.975Z,0.80
2019-03-20T01:02:12.937Z,0.80
2019-03-20T01:03:04.858Z,0.80
2019-03-20T01:04:04.910Z,0.80
2019-03-20T01:05:12.380Z,0.90
2019-03-20T01:06:07.566Z,0.80
2019-03-20T01:07:10.111Z,0.80
2019-03-20T01:08:07.850Z,0.80
2019-03-20T01:09:04.894Z,0.80
2019-03-20T01:10:05.055Z,0.80
2019-03-20T01:11:05.112Z,0.80
2019-03-20T01:12:05.236Z,0.80
2019-03-20T01:13:10.379Z,0.80
2019-03-20T01:14:10.587Z,0.80
2019-03-20T01:15:08.093Z,0.80
2019-03-20T01:16:05.088Z,0.80
2019-03-20T01:17:05.235Z,0.80
2019-03-20T01:18:05.281Z,0.80
2019-03-20T01:19:07.855Z,0.80
2019-03-20T01:20:07.448Z,0.70
2019-03-20T01:21:05.399Z,0.70
2019-03-20T01:22:05.595Z,0.70
2019-03-20T01:23:07.278Z,0.70
2019-03-20T01:24:07.957Z,0.70
2019-03-20T01:25:04.894Z,0.60
2019-03-20T01:26:07.416Z,0.60
2019-03-20T01:27:07.886Z,0.60
2019-03-20T01:28:04.819Z,0.60
2019-03-20T01:29:07.514Z,0.60
2019-03-20T01:30:05.491Z,0.60
2019-03-20T01:31:08.113Z,0.50
2019-03-20T01:32:05.015Z,0.50
2019-03-20T01:33:07.550Z,0.50
2019-03-20T01:34:05.545Z,0.50
2019-03-20T01:35:05.754Z,0.50
2019-03-20T01:36:10.107Z,0.40
2019-03-20T01:37:07.582Z,0.50
2019-03-20T01:38:05.584Z,0.40
2019-03-20T01:39:05.622Z,0.40
2019-03-20T01:40:07.330Z,0.30
2019-03-20T01:41:05.377Z,0.40
2019-03-20T01:42:08.126Z,0.30
2019-03-20T01:43:05.258Z,0.30
2019-03-20T01:44:05.599Z,0.30
2019-03-20T01:45:07.414Z,0.30
2019-03-20T01:46:05.555Z,0.30
2019-03-20T01:47:06.775Z,0.30
2019-03-20T01:48:05.013Z,0.20
2019-03-20T01:49:05.127Z,0.20
2019-03-20T01:50:05.255Z,0.20
2019-03-20T01:51:05.568Z,0.20
2019-03-20T01:52:04.668Z,0.20
2019-03-20T01:53:04.832Z,0.20
2019-03-20T01:54:04.941Z,0.20
2019-03-20T01:55:04.990Z,0.10
2019-03-20T01:56:05.080Z,0.10
2019-03-20T01:57:05.188Z,0.10
2019-03-20T01:58:07.916Z,0.10
2019-03-20T01:59:04.935Z,0.10
2019-03-20T02:00:05.136Z,0.10
2019-03-20T02:01:05.385Z,0.00
2019-03-20T02:02:05.517Z,0.00
2019-03-20T02:03:08.106Z,0.00
2019-03-20T02:04:05.077Z,0.00
2019-03-20T02:05:05.181Z,0.00
2019-03-20T02:06:05.254Z,0.00
2019-03-20T02:07:07.830Z,0.00
2019-03-20T02:08:04.754Z,-0.10
2019-03-20T02:09:09.849Z,-0.10
2019-03-20T02:10:07.368Z,-0.10
2019-03-20T02:11:07.871Z,-0.10
2019-03-20T02:12:04.772Z,0.00
2019-03-20T02:13:10.041Z,0.00
2019-03-20T02:14:07.500Z,0.00
2019-03-20T02:15:05.521Z,0.00
2019-03-20T02:16:09.969Z,0.00
2019-03-20T02:17:04.978Z,0.00
2019-03-20T02:18:05.050Z,-0.10
2019-03-20T02:19:05.193Z,-0.10
2019-03-20T02:20:07.825Z,-0.10
2019-03-20T02:21:07.219Z,-0.10
2019-03-20T02:22:07.810Z,-0.10
2019-03-20T02:23:04.916Z,-0.10
2019-03-20T02:24:05.096Z,-0.10
2019-03-20T02:25:10.391Z,-0.20
2019-03-20T02:26:05.417Z,-0.20
2019-03-20T02:27:08.166Z,-0.10
2019-03-20T02:28:07.771Z,-0.10
2019-03-20T02:29:04.857Z,-0.10
2019-03-20T02:30:04.999Z,-0.10
2019-03-20T02:31:05.117Z,-0.20
2019-03-20T02:32:05.265Z,-0.10
2019-03-20T02:33:07.936Z,-0.20
2019-03-20T02:34:10.011Z,-0.20
2019-03-20T02:35:07.616Z,-0.20
2019-03-20T02:36:05.680Z,-0.20
2019-03-20T02:37:04.955Z,-0.20
2019-03-20T02:38:05.043Z,-0.20
2019-03-20T02:39:05.165Z,-0.20
2019-03-20T02:40:05.277Z,-0.30
2019-03-20T02:41:07.881Z,-0.20
2019-03-20T02:42:04.784Z,-0.20
2019-03-20T02:43:09.948Z,-0.20
2019-03-20T02:44:05.335Z,-0.20
2019-03-20T02:45:08.069Z,-0.20
2019-03-20T02:46:07.564Z,-0.20
2019-03-20T02:47:05.706Z,-0.20
2019-03-20T02:48:04.775Z,-0.20
2019-03-20T02:49:07.390Z,-0.20
2019-03-20T02:50:05.336Z,-0.30
2019-03-20T02:51:05.516Z,-0.30
2019-03-20T02:52:05.786Z,-0.30
2019-03-20T02:53:07.546Z,-0.30
2019-03-20T02:54:05.631Z,-0.30
2019-03-20T02:55:04.727Z,-0.40
2019-03-20T02:56:07.377Z,-0.40
2019-03-20T02:57:05.382Z,-0.40
2019-03-20T02:58:05.475Z,-0.40
2019-03-20T02:59:05.552Z,-0.40
2019-03-20T03:00:05.575Z,-0.50
2019-03-20T03:01:10.666Z,-0.50
2019-03-20T03:02:08.506Z,-0.50
2019-03-20T03:03:05.530Z,-0.50
2019-03-20T03:04:08.131Z,-0.60
2019-03-20T03:05:05.036Z,-0.60
2019-03-20T03:06:06.951Z,-0.60
2019-03-20T03:07:04.805Z,-0.60
2019-03-20T03:08:04.854Z,-0.60
2019-03-20T03:09:07.549Z,-0.60
2019-03-20T03:10:05.587Z,-0.60
2019-03-20T03:11:04.659Z,-0.70
2019-03-20T03:12:07.239Z,-0.60
2019-03-20T03:13:07.705Z,-0.70
2019-03-20T03:14:05.730Z,-0.70
2019-03-20T03:15:07.375Z,-0.70
2019-03-20T03:16:10.427Z,-0.70
2019-03-20T03:17:05.506Z,-0.70
2019-03-20T03:18:08.120Z,-0.70
2019-03-20T03:19:05.064Z,-0.70
2019-03-20T03:20:05.163Z,-0.70
2019-03-20T03:21:05.193Z,-0.80
2019-03-20T03:22:05.283Z,-0.80
2019-03-20T03:23:07.828Z,-0.70
2019-03-20T03:24:04.841Z,-0.80
2019-03-20T03:25:05.064Z,-0.70
2019-03-20T03:26:07.693Z,-0.80
2019-03-20T03:27:08.162Z,-0.70
2019-03-20T03:28:05.086Z,-0.80
2019-03-20T03:29:05.290Z,-0.80
2019-03-20T03:30:05.616Z,-0.80
2019-03-20T03:31:04.718Z,-0.80
2019-03-20T03:32:04.857Z,-0.80
2019-03-20T03:33:07.944Z,-0.80
2019-03-20T03:34:05.043Z,-0.80
2019-03-20T03:35:07.932Z,-0.80
2019-03-20T03:36:20.492Z,-0.80
2019-03-20T03:37:04.683Z,-0.80
2019-03-20T03:38:04.793Z,-0.80
2019-03-20T03:39:04.842Z,-0.80
2019-03-20T03:40:10.102Z,-0.80
2019-03-20T03:41:05.145Z,-0.80
2019-03-20T03:42:07.706Z,-0.80
2019-03-20T03:43:05.651Z,-0.90
2019-03-20T03:44:07.599Z,-0.80
2019-03-20T03:45:08.029Z,-0.80
2019-03-20T03:46:05.036Z,-0.80
2019-03-20T03:47:05.071Z,-0.80
2019-03-20T03:48:05.150Z,-0.80
2019-03-20T03:49:05.158Z,-0.80
2019-03-20T03:50:07.782Z,-0.80
2019-03-20T03:51:04.859Z,-0.80
2019-03-20T03:52:04.918Z,-0.80
2019-03-20T03:53:10.099Z,-0.80
2019-03-20T03:54:07.653Z,-0.80
2019-03-20T03:55:08.217Z,-0.80
2019-03-20T03:56:07.761Z,-0.80
2019-03-20T03:57:04.677Z,-0.80
2019-03-20T03:58:04.785Z,-0.80
2019-03-20T03:59:04.986Z,-0.80
2019-03-20T04:00:05.185Z,-0.90
2019-03-20T04:01:07.905Z,-0.90
2019-03-20T04:02:04.987Z,-1.00
2019-03-20T04:03:05.161Z,-1.00
2019-03-20T04:04:05.367Z,-1.00
2019-03-20T04:05:05.534Z,-1.00
2019-03-20T04:06:08.233Z,-1.10
2019-03-20T04:07:05.334Z,-1.10
2019-03-20T04:08:05.422Z,-1.00
2019-03-20T04:09:08.034Z,-1.10
2019-03-20T04:10:05.025Z,-1.10
2019-03-20T04:11:10.241Z,-1.10
2019-03-20T04:12:12.807Z,-1.10
2019-03-20T04:13:04.891Z,-1.10
2019-03-20T04:14:10.096Z,-1.10
2019-03-20T04:15:05.153Z,-1.10
2019-03-20T04:16:07.761Z,-1.10
2019-03-20T04:17:07.270Z,-1.10
2019-03-20T04:18:05.191Z,-1.10
2019-03-20T04:19:05.343Z,-1.10
2019-03-20T04:20:05.495Z,-1.10
2019-03-20T04:21:05.659Z,-1.10
2019-03-20T04:22:04.761Z,-1.10
2019-03-20T04:23:04.722Z,-1.10
2019-03-20T04:24:07.501Z,-1.20
2019-03-20T04:25:05.686Z,-1.20
2019-03-20T04:26:07.296Z,-1.20
2019-03-20T04:27:05.185Z,-1.20
2019-03-20T04:28:07.760Z,-1.20
2019-03-20T04:29:09.866Z,-1.20
2019-03-20T04:30:07.398Z,-1.20
2019-03-20T04:31:07.854Z,-1.20
2019-03-20T04:32:07.301Z,-1.20
2019-03-20T04:33:05.219Z,-1.20
2019-03-20T04:34:07.769Z,-1.20
2019-03-20T04:35:04.775Z,-1.20
2019-03-20T04:36:12.385Z,-1.30
2019-03-20T04:37:07.838Z,-1.30
2019-03-20T04:38:04.704Z,-1.30
2019-03-20T04:39:04.908Z,-1.30
2019-03-20T04:40:07.514Z,-1.40
2019-03-20T04:41:05.590Z,-1.40
2019-03-20T04:42:07.311Z,-1.40
2019-03-20T04:43:05.229Z,-1.40
2019-03-20T04:44:04.860Z,-1.40
2019-03-20T04:45:04.904Z,-1.40
2019-03-20T04:46:07.538Z,-1.40
2019-03-20T04:47:05.507Z,-1.40
2019-03-20T04:48:08.128Z,-1.40
2019-03-20T04:49:05.217Z,-1.40
2019-03-20T04:50:05.370Z,-1.40
2019-03-20T04:51:08.196Z,-1.50
2019-03-20T04:52:07.655Z,-1.50
2019-03-20T04:53:08.177Z,-1.50
2019-03-20T04:54:07.710Z,-1.40
2019-03-20T04:55:08.203Z,-1.50
2019-03-20T04:56:05.196Z,-1.50
2019-03-20T04:57:07.783Z,-1.40
2019-03-20T04:58:07.267Z,-1.40
2019-03-20T04:59:10.431Z,-1.40
2019-03-20T05:00:05.460Z,-1.50
2019-03-20T05:01:08.170Z,-1.50
2019-03-20T05:02:07.637Z,-1.40
2019-03-20T05:03:08.094Z,-1.40
2019-03-20T05:04:05.068Z,-1.50
2019-03-20T05:05:05.151Z,-1.50
2019-03-20T05:06:07.811Z,-1.40
2019-03-20T05:07:04.960Z,-1.50
2019-03-20T05:08:05.158Z,-1.40
2019-03-20T05:09:05.313Z,-1.40
2019-03-20T05:10:05.507Z,-1.40
2019-03-20T05:11:08.115Z,-1.40
2019-03-20T05:12:05.048Z,-1.40
2019-03-20T05:13:05.081Z,-1.50
2019-03-20T05:14:07.621Z,-1.50
2019-03-20T05:15:05.591Z,-1.50
2019-03-20T05:16:08.163Z,-1.50
2019-03-20T05:17:07.739Z,-1.60
2019-03-20T05:18:07.266Z,-1.50
2019-03-20T05:19:10.220Z,-1.60
2019-03-20T05:20:07.666Z,-1.60
2019-03-20T05:21:05.670Z,-1.50
2019-03-20T05:22:04.785Z,-1.60
2019-03-20T05:23:04.933Z,-1.60
2019-03-20T05:24:05.025Z,-1.60
2019-03-20T05:25:05.549Z,-1.60
2019-03-20T05:26:04.845Z,-1.60
2019-03-20T05:27:07.547Z,-1.60
2019-03-20T05:28:05.583Z,-1.60
2019-03-20T05:29:08.268Z,-1.60
2019-03-20T05:30:05.333Z,-1.60
2019-03-20T05:31:08.046Z,-1.60
2019-03-20T05:32:05.000Z,-1.60
2019-03-20T05:33:10.398Z,-1.50
2019-03-20T05:34:10.450Z,-1.50
2019-03-20T05:35:08.333Z,-1.60
2019-03-20T05:36:08.115Z,-1.50
2019-03-20T05:37:10.098Z,-1.50
2019-03-20T05:38:05.005Z,-1.50
2019-03-20T05:39:07.878Z,-1.50
2019-03-20T05:40:07.477Z,-1.60
2019-03-20T05:41:05.462Z,-1.50
2019-03-20T05:42:05.724Z,-1.50
2019-03-20T05:43:07.429Z,-1.60
2019-03-20T05:44:07.806Z,-1.60
2019-03-20T05:45:04.783Z,-1.60
2019-03-20T05:46:07.559Z,-1.50
2019-03-20T05:47:05.544Z,-1.50
2019-03-20T05:48:08.134Z,-1.50
2019-03-20T05:49:05.113Z,-1.50
2019-03-20T05:50:05.313Z,-1.50
2019-03-20T05:51:05.557Z,-1.50
2019-03-20T05:52:11.253Z,-1.50
2019-03-20T05:53:05.222Z,-1.40
2019-03-20T05:54:05.321Z,-1.40
2019-03-20T05:55:08.109Z,-1.20
2019-03-20T05:56:05.080Z,-1.20
2019-03-20T05:57:07.666Z,-1.00
2019-03-20T05:58:04.718Z,-1.00
2019-03-20T05:59:07.371Z,-0.70
2019-03-20T06:00:05.356Z,-0.70
2019-03-20T06:01:05.719Z,-0.60
2019-03-20T06:02:09.867Z,-0.20
2019-03-20T06:03:05.175Z,-0.20
2019-03-20T06:04:07.894Z,0.20
2019-03-20T06:05:04.957Z,0.20
2019-03-20T06:06:07.668Z,0.60
2019-03-20T06:07:05.728Z,0.50
2019-03-20T06:08:04.892Z,0.70
2019-03-20T06:09:05.031Z,0.90
2019-03-20T06:10:05.143Z,1.10
2019-03-20T06:11:05.237Z,1.20
2019-03-20T06:12:05.374Z,1.40
2019-03-20T06:13:05.530Z,1.60
2019-03-20T06:14:05.692Z,1.70
2019-03-20T06:15:04.922Z,1.90
2019-03-20T06:16:07.561Z,2.30
2019-03-20T06:17:05.465Z,2.30
2019-03-20T06:18:08.100Z,2.60
2019-03-20T06:19:07.623Z,2.80
2019-03-20T06:20:05.853Z,2.70
2019-03-20T06:21:05.083Z,2.90
2019-03-20T06:22:07.848Z,3.20
2019-03-20T06:23:07.448Z,3.30
2019-03-20T06:24:05.446Z,3.30
2019-03-20T06:25:05.625Z,3.40
2019-03-20T06:26:07.306Z,3.70
2019-03-20T06:27:07.781Z,3.80
2019-03-20T06:28:04.708Z,3.80
2019-03-20T06:29:04.996Z,3.90
2019-03-20T06:30:05.246Z,4.00
2019-03-20T06:31:05.544Z,4.10
2019-03-20T06:32:05.720Z,4.20
2019-03-20T06:33:04.803Z,4.30
2019-03-20T06:34:07.384Z,4.50
2019-03-20T06:35:05.457Z,4.50
2019-03-20T06:36:05.700Z,4.60
2019-03-20T06:37:04.880Z,4.70
2019-03-20T06:38:10.105Z,4.90
2019-03-20T06:39:10.204Z,5.00
2019-03-20T06:40:05.168Z,5.00
2019-03-20T06:41:05.333Z,5.10
2019-03-20T06:42:05.582Z,5.20
2019-03-20T06:43:04.660Z,5.30
2019-03-20T06:44:07.748Z,5.50
2019-03-20T06:45:04.761Z,5.50
2019-03-20T06:46:04.902Z,5.60
2019-03-20T06:47:05.292Z,5.60
2019-03-20T06:48:05.394Z,5.70
2019-03-20T06:49:07.699Z,5.80
2019-03-20T06:50:05.126Z,5.80
2019-03-20T06:51:07.907Z,5.90
2019-03-20T06:52:05.040Z,5.90
2019-03-20T06:53:07.724Z,6.10
2019-03-20T06:54:04.737Z,6.00
2019-03-20T06:55:04.930Z,6.10
2019-03-20T06:56:07.741Z,6.30
2019-03-20T06:57:04.860Z,6.30
2019-03-20T06:58:04.995Z,6.30
2019-03-20T06:59:07.722Z,6.50
2019-03-20T07:00:05.512Z,6.50
2019-03-20T07:01:04.789Z,6.50
2019-03-20T07:02:04.892Z,6.60
2019-03-20T07:03:05.107Z,6.60
2019-03-20T07:04:05.584Z,6.70
2019-03-20T07:05:04.698Z,6.70
2019-03-20T07:06:04.842Z,6.80
2019-03-20T07:07:04.976Z,6.80
2019-03-20T07:08:05.194Z,6.90
2019-03-20T07:09:05.374Z,6.90
2019-03-20T07:10:05.436Z,6.90
2019-03-20T07:11:07.390Z,7.00
2019-03-20T07:12:07.908Z,7.00
2019-03-20T07:13:07.475Z,7.00
2019-03-20T07:14:05.557Z,7.00
2019-03-20T07:15:07.396Z,7.10
2019-03-20T07:16:05.493Z,7.10
2019-03-20T07:17:05.734Z,7.10
2019-03-20T07:18:04.844Z,7.20
2019-03-20T07:19:04.938Z,7.20
2019-03-20T07:20:05.510Z,7.20
2019-03-20T07:21:05.683Z,7.20
2019-03-20T07:22:05.680Z,7.30
2019-03-20T07:23:04.808Z,7.30
2019-03-20T07:24:04.958Z,7.30
2019-03-20T07:25:10.210Z,7.30
2019-03-20T07:26:07.786Z,7.30
2019-03-20T07:27:07.500Z,7.20
2019-03-20T07:28:05.503Z,7.20
2019-03-20T07:29:08.099Z,7.30
2019-03-20T07:30:07.728Z,7.30
2019-03-20T07:31:14.562Z,7.20
2019-03-20T07:32:07.315Z,7.20
2019-03-20T07:33:07.849Z,7.20
2019-03-20T07:34:04.837Z,7.20
2019-03-20T07:35:07.722Z,7.30
2019-03-20T07:36:07.240Z,7.30
2019-03-20T07:37:05.441Z,7.30
2019-03-20T07:38:08.134Z,7.30
2019-03-20T07:39:05.198Z,7.40
2019-03-20T07:40:05.358Z,7.30
2019-03-20T07:41:05.438Z,7.40
2019-03-20T07:42:05.556Z,7.40
2019-03-20T07:43:08.916Z,7.40
2019-03-20T07:44:08.095Z,7.40
2019-03-20T07:45:05.170Z,7.40
2019-03-20T07:46:05.412Z,7.40
2019-03-20T07:47:07.273Z,7.40
2019-03-20T07:48:05.298Z,7.40
2019-03-20T07:49:08.059Z,7.50
2019-03-20T07:50:07.651Z,7.50
2019-03-20T07:51:04.785Z,7.50
2019-03-20T07:52:07.409Z,7.50
2019-03-20T07:53:05.410Z,7.50
2019-03-20T07:54:05.612Z,7.60
2019-03-20T07:55:07.428Z,7.60
2019-03-20T07:56:08.017Z,7.70
2019-03-20T07:57:04.987Z,7.60
2019-03-20T07:58:05.085Z,7.70
2019-03-20T07:59:08.101Z,7.70
2019-03-20T08:00:05.142Z,7.80
2019-03-20T08:01:05.226Z,7.80
2019-03-20T08:02:05.388Z,7.80
2019-03-20T08:03:05.479Z,7.80
2019-03-20T08:04:05.566Z,7.70
2019-03-20T08:05:08.155Z,7.70
2019-03-20T08:06:05.133Z,7.80
2019-03-20T08:07:08.289Z,7.70
2019-03-20T08:08:10.273Z,7.70
2019-03-20T08:09:05.177Z,7.70
2019-03-20T08:10:05.258Z,7.70
2019-03-20T08:11:05.420Z,7.70
2019-03-20T08:12:05.581Z,7.70
2019-03-20T08:13:08.308Z,7.70
2019-03-20T08:14:05.453Z,7.70
2019-03-20T08:15:08.165Z,7.70
2019-03-20T08:16:05.134Z,7.70
2019-03-20T08:17:05.231Z,7.70
2019-03-20T08:18:05.364Z,7.70
2019-03-20T08:19:05.507Z,7.70
2019-03-20T08:20:10.798Z,7.80
2019-03-20T08:21:04.892Z,7.80
2019-03-20T08:22:05.073Z,7.80
2019-03-20T08:23:05.209Z,7.90
2019-03-20T08:24:05.311Z,7.90
2019-03-20T08:25:07.909Z,8.00
2019-03-20T08:26:04.938Z,7.90
2019-03-20T08:27:05.358Z,8.00
2019-03-20T08:28:05.486Z,8.00
2019-03-20T08:29:05.602Z,8.00
2019-03-20T08:30:04.771Z,8.00
2019-03-20T08:31:07.500Z,8.00
2019-03-20T08:32:07.998Z,8.10
2019-03-20T08:33:05.039Z,8.10
2019-03-20T08:34:07.700Z,8.20
2019-03-20T08:35:04.681Z,8.10
2019-03-20T08:36:09.873Z,8.20
2019-03-20T08:37:04.882Z,8.20
2019-03-20T08:38:04.997Z,8.20
2019-03-20T08:39:05.039Z,8.20
2019-03-20T08:40:05.382Z,8.20
2019-03-20T08:41:08.190Z,8.30
2019-03-20T08:42:05.359Z,8.30
2019-03-20T08:43:05.562Z,8.20
2019-03-20T08:44:05.038Z,8.30
2019-03-20T08:45:07.792Z,8.30
2019-03-20T08:46:07.720Z,8.30
2019-03-20T08:47:04.742Z,8.30
2019-03-20T08:48:04.916Z,8.40
2019-03-20T08:49:05.010Z,8.40
2019-03-20T08:50:07.647Z,8.50
2019-03-20T08:51:05.833Z,8.50
2019-03-20T08:52:05.028Z,8.50
2019-03-20T08:53:10.305Z,8.60
2019-03-20T08:54:07.837Z,8.60
2019-03-20T08:55:04.928Z,8.60
2019-03-20T08:56:07.810Z,8.70
2019-03-20T08:57:04.806Z,8.70
2019-03-20T08:58:07.704Z,8.70
2019-03-20T08:59:04.796Z,8.70
2019-03-20T09:00:07.509Z,8.70
2019-03-20T09:01:05.698Z,8.70
2019-03-20T09:02:05.112Z,8.80
2019-03-20T09:03:05.451Z,8.80
2019-03-20T09:04:05.662Z,8.80
2019-03-20T09:05:04.787Z,8.80
2019-03-20T09:06:04.966Z,8.80
2019-03-20T09:07:08.037Z,8.90
2019-03-20T09:08:07.621Z,9.00
2019-03-20T09:09:05.709Z,9.00
2019-03-20T09:10:04.877Z,9.00
2019-03-20T09:11:05.186Z,9.10
2019-03-20T09:12:07.916Z,9.10
2019-03-20T09:13:04.950Z,9.10
2019-03-20T09:14:05.036Z,9.20
2019-03-20T09:15:07.690Z,9.30
2019-03-20T09:16:05.715Z,9.20
2019-03-20T09:17:05.063Z,9.30
2019-03-20T09:18:05.246Z,9.30
2019-03-20T09:19:05.459Z,9.30
2019-03-20T09:20:08.226Z,9.40
2019-03-20T09:21:05.203Z,9.40
2019-03-20T09:22:05.535Z,9.40
2019-03-20T09:23:07.284Z,9.50
2019-03-20T09:24:05.351Z,9.50
2019-03-20T09:25:08.135Z,9.50
2019-03-20T09:26:07.699Z,9.60
2019-03-20T09:27:04.717Z,9.60
2019-03-20T09:28:04.886Z,9.60
2019-03-20T09:29:05.115Z,9.60
2019-03-20T09:30:11.615Z,9.70
2019-03-20T09:31:08.253Z,9.70
2019-03-20T09:32:07.816Z,9.70
2019-03-20T09:33:04.763Z,9.70
2019-03-20T09:34:05.421Z,9.70
2019-03-20T09:35:10.242Z,9.80
2019-03-20T09:36:05.219Z,9.80
2019-03-20T09:37:05.586Z,9.80
2019-03-20T09:38:04.812Z,9.80
2019-03-20T09:39:07.451Z,9.80
2019-03-20T09:40:07.996Z,9.80
2019-03-20T09:41:05.144Z,9.80
2019-03-20T09:42:07.966Z,9.90
2019-03-20T09:43:07.582Z,9.90
2019-03-20T09:44:05.592Z,9.90
2019-03-20T09:45:04.739Z,10.00
2019-03-20T09:46:04.903Z,10.00
2019-03-20T09:47:07.677Z,10.00
2019-03-20T09:48:04.834Z,10.00
2019-03-20T09:49:04.952Z,10.10
2019-03-20T09:50:05.170Z,10.10
2019-03-20T09:51:07.839Z,10.20
2019-03-20T09:52:09.962Z,10.20
2019-03-20T09:53:04.996Z,10.20
2019-03-20T09:54:05.044Z,10.20
2019-03-20T09:55:05.189Z,10.20
2019-03-20T09:56:05.362Z,10.20
2019-03-20T09:57:08.052Z,10.30
2019-03-20T09:58:11.345Z,10.30
2019-03-20T09:59:05.131Z,10.30
2019-03-20T10:00:05.310Z,10.30
2019-03-20T10:01:05.454Z,10.30
2019-03-20T10:02:05.537Z,10.30
2019-03-20T10:03:05.664Z,10.30
2019-03-20T10:04:05.142Z,10.40
2019-03-20T10:05:05.298Z,10.40
2019-03-20T10:06:07.973Z,10.40
2019-03-20T10:07:07.548Z,10.40
2019-03-20T10:08:05.721Z,10.40
2019-03-20T10:09:04.945Z,10.50
2019-03-20T10:10:07.831Z,10.50
2019-03-20T10:11:07.434Z,10.60
2019-03-20T10:12:07.954Z,10.60
2019-03-20T10:13:04.992Z,10.60
2019-03-20T10:14:05.236Z,10.60
2019-03-20T10:15:07.972Z,10.70
2019-03-20T10:16:07.580Z,10.70
2019-03-20T10:17:08.218Z,10.70
2019-03-20T10:18:05.244Z,10.70
2019-03-20T10:19:07.878Z,10.80
2019-03-20T10:20:04.900Z,10.80
2019-03-20T10:21:05.030Z,10.70
2019-03-20T10:22:05.162Z,10.80
2019-03-20T10:23:05.307Z,10.80
2019-03-20T10:24:05.438Z,10.80
2019-03-20T10:25:05.652Z,10.80
2019-03-20T10:26:04.775Z,10.90
2019-03-20T10:27:04.864Z,10.90
2019-03-20T10:28:04.955Z,10.90
2019-03-20T10:29:05.046Z,10.90
2019-03-20T10:30:07.860Z,10.90
2019-03-20T10:31:04.876Z,10.90
2019-03-20T10:32:05.069Z,10.90
2019-03-20T10:33:07.908Z,11.00
2019-03-20T10:34:09.964Z,11.00
2019-03-20T10:35:07.496Z,11.00
2019-03-20T10:36:05.472Z,11.00
2019-03-20T10:37:08.097Z,11.10
2019-03-20T10:38:07.590Z,11.10
2019-03-20T10:39:06.176Z,11.00
2019-03-20T10:40:05.057Z,11.10
2019-03-20T10:41:07.702Z,11.10
2019-03-20T10:42:09.798Z,11.10
2019-03-20T10:43:04.830Z,11.10
2019-03-20T10:44:05.551Z,11.10
2019-03-20T10:45:04.884Z,11.20
2019-03-20T10:46:05.095Z,11.10
2019-03-20T10:47:05.191Z,11.10
2019-03-20T10:48:07.884Z,11.10
2019-03-20T10:49:04.931Z,11.10
2019-03-20T10:50:05.127Z,11.10
2019-03-20T10:51:07.844Z,11.10
2019-03-20T10:52:07.500Z,11.20
2019-03-20T10:53:05.551Z,11.20
2019-03-20T10:54:04.846Z,11.20
2019-03-20T10:55:05.045Z,11.20
2019-03-20T10:56:05.273Z,11.20
2019-03-20T10:57:05.421Z,11.20
2019-03-20T10:58:05.597Z,11.20
2019-03-20T10:59:07.339Z,11.20
2019-03-20T11:00:05.617Z,11.20
2019-03-20T11:01:04.796Z,11.20
2019-03-20T11:02:05.092Z,11.30
2019-03-20T11:03:07.925Z,11.30
2019-03-20T11:04:07.495Z,11.30
2019-03-20T11:05:05.495Z,11.30
2019-03-20T11:06:05.743Z,11.30
2019-03-20T11:07:04.902Z,11.30
2019-03-20T11:08:05.059Z,11.40
2019-03-20T11:09:05.205Z,11.40
2019-03-20T11:10:05.386Z,11.40
2019-03-20T11:11:05.567Z,11.50
2019-03-20T11:12:07.192Z,11.40
2019-03-20T11:13:07.715Z,11.40
2019-03-20T11:14:04.812Z,11.40
2019-03-20T11:15:04.999Z,11.50
2019-03-20T11:16:07.626Z,11.50
2019-03-20T11:17:05.629Z,11.50
2019-03-20T11:18:04.823Z,11.60
2019-03-20T11:19:04.977Z,11.60
2019-03-20T11:20:07.754Z,11.60
2019-03-20T11:21:04.858Z,11.60
2019-03-20T11:22:05.196Z,11.60
2019-03-20T11:23:05.437Z,11.60
2019-03-20T11:24:10.601Z,11.70
2019-03-20T11:25:05.597Z,11.70
2019-03-20T11:26:04.827Z,11.70
2019-03-20T11:27:07.548Z,11.70
2019-03-20T11:28:05.697Z,11.70
2019-03-20T11:29:04.870Z,11.70
2019-03-20T11:30:05.031Z,11.70
2019-03-20T11:31:07.700Z,11.70
2019-03-20T11:32:07.232Z,11.70
2019-03-20T11:33:05.334Z,11.70
2019-03-20T11:34:08.074Z,11.70
2019-03-20T11:35:07.583Z,11.80
2019-03-20T11:36:05.543Z,11.80
2019-03-20T11:37:08.304Z,11.80
2019-03-20T11:38:05.386Z,11.80
2019-03-20T11:39:08.067Z,11.90
2019-03-20T11:40:07.725Z,11.90
2019-03-20T11:41:07.307Z,11.90
2019-03-20T11:42:05.275Z,7.10
2019-03-20T11:43:05.495Z,12.00
2019-03-20T11:44:05.699Z,12.00
2019-03-20T11:45:04.810Z,12.00
2019-03-20T11:46:07.709Z,12.00
2019-03-20T11:47:04.788Z,12.00
2019-03-20T11:48:05.094Z,12.00
2019-03-20T11:49:05.244Z,12.00
2019-03-20T11:50:05.420Z,12.00
2019-03-20T11:51:05.643Z,12.00
2019-03-20T11:52:06.244Z,12.00
2019-03-20T11:53:05.642Z,12.00
2019-03-20T11:54:07.361Z,12.10
2019-03-20T11:55:05.492Z,12.10
2019-03-20T11:56:05.715Z,12.10
2019-03-20T11:57:04.992Z,12.20
2019-03-20T11:58:05.481Z,12.20
2019-03-20T11:59:07.281Z,12.20
2019-03-20T12:00:05.463Z,12.20
2019-03-20T12:01:07.309Z,12.20
2019-03-20T12:02:05.341Z,12.20
2019-03-20T12:03:05.518Z,12.20
2019-03-20T12:04:05.812Z,12.20
2019-03-20T12:05:07.618Z,12.20
2019-03-20T12:06:04.664Z,12.20
2019-03-20T12:07:04.881Z,12.20
2019-03-20T12:08:07.465Z,12.10
2019-03-20T12:09:05.599Z,12.10
2019-03-20T12:10:04.751Z,12.20
2019-03-20T12:11:05.343Z,12.20
2019-03-20T12:12:05.507Z,12.20
2019-03-20T12:13:05.643Z,12.30
2019-03-20T12:14:07.341Z,12.30
2019-03-20T12:15:05.530Z,12.30
2019-03-20T12:16:04.724Z,12.30
2019-03-20T12:17:07.407Z,12.20
2019-03-20T12:18:05.477Z,12.20
2019-03-20T12:19:05.585Z,12.20
2019-03-20T12:20:07.208Z,12.20
2019-03-20T12:21:05.144Z,12.20
2019-03-20T12:22:07.886Z,12.20
2019-03-20T12:23:04.904Z,12.20
2019-03-20T12:24:07.618Z,12.20
2019-03-20T12:25:05.627Z,12.20
2019-03-20T12:26:07.297Z,12.20
2019-03-20T12:27:14.501Z,12.20
2019-03-20T12:28:07.989Z,12.20
2019-03-20T12:29:04.879Z,12.20
2019-03-20T12:30:10.093Z,12.20
2019-03-20T12:31:10.144Z,12.20
2019-03-20T12:32:05.275Z,12.20
2019-03-20T12:33:05.411Z,12.30
2019-03-20T12:34:08.055Z,12.20
2019-03-20T12:35:05.171Z,12.20
2019-03-20T12:36:05.370Z,12.20
2019-03-20T12:37:10.605Z,12.10
2019-03-20T12:38:14.049Z,12.20
2019-03-20T12:39:05.513Z,12.20
2019-03-20T12:40:05.658Z,12.20
2019-03-20T12:41:04.777Z,12.10
2019-03-20T12:42:07.504Z,12.00
2019-03-20T12:43:05.603Z,12.00
2019-03-20T12:44:04.795Z,12.10
2019-03-20T12:45:05.045Z,12.00
2019-03-20T12:46:05.272Z,12.00
2019-03-20T12:47:05.431Z,12.00
2019-03-20T12:48:05.650Z,12.00
2019-03-20T12:49:07.765Z,12.10
2019-03-20T12:50:04.789Z,12.20
2019-03-20T12:51:04.962Z,12.10
2019-03-20T12:52:05.057Z,12.20
2019-03-20T12:53:05.140Z,12.20
2019-03-20T12:54:05.229Z,12.20
2019-03-20T12:55:05.391Z,12.30
2019-03-20T12:56:08.122Z,12.20
2019-03-20T12:57:05.148Z,12.20
2019-03-20T12:58:05.336Z,12.30
2019-03-20T12:59:08.011Z,12.30
2019-03-20T13:00:05.094Z,12.30
2019-03-20T13:01:05.433Z,12.30
2019-03-20T13:02:08.044Z,12.30
2019-03-20T13:03:05.268Z,12.30
2019-03-20T13:04:07.882Z,12.30